Time,TemperatureF,DewpointF,PressureIn,WindDirection,WindDirectionDegrees,WindSpeedMPH,WindSpeedGustMPH,Humidity,HourlyPrecipIn,Conditions,Clouds,dailyrainin,SolarRadiationWatts/m^2,SoftwareType,DateUTC
2013-01-06 13:22:00,31.0,5.0,-100.00,SSE,160,7.0,19.0,32,-99.99,,,0.00,598.000000,,2013-01-06 21:22:00,
2013-01-06 13:33:00,31.0,5.0,-100.00,SSE,160,7.0,19.0,32,-99.99,,,0.00,598.000000,,2013-01-06 21:33:00,
2013-01-06 13:42:00,31.0,5.0,-100.00,SSE,160,7.0,19.0,32,-99.99,,,0.00,598.000000,,2013-01-06 21:42:00,
2013-01-06 13:52:00,31.0,5.0,-100.00,SSE,160,7.0,19.0,32,-99.99,,,0.00,598.000000,,2013-01-06 21:52:00,
2013-01-06 14:12:00,27.0,13.0,-100.00,East,85,6.0,15.0,56,0.00,,,0.00,512.000000,,2013-01-06 22:12:00,
2013-01-06 14:22:00,27.0,13.0,-100.00,East,85,6.0,15.0,56,0.00,,,0.00,512.000000,,2013-01-06 22:22:00,
2013-01-06 14:33:00,27.0,13.0,-100.00,East,85,6.0,15.0,56,0.00,,,0.00,512.000000,,2013-01-06 22:33:00,
2013-01-06 14:42:00,27.0,13.0,-100.00,East,85,6.0,15.0,56,0.00,,,0.00,512.000000,,2013-01-06 22:42:00,
2013-01-06 14:52:00,27.0,13.0,-100.00,East,85,6.0,15.0,56,0.00,,,0.00,512.000000,,2013-01-06 22:52:00,
2013-01-06 15:12:00,22.0,13.0,-100.00,North,3,6.0,17.0,69,0.00,,,0.00,312.000000,,2013-01-06 23:12:00,
2013-01-06 15:22:00,22.0,13.0,-100.00,North,3,6.0,17.0,69,0.00,,,0.00,312.000000,,2013-01-06 23:22:00,
2013-01-06 15:32:00,22.0,13.0,-100.00,North,3,6.0,17.0,69,0.00,,,0.00,312.000000,,2013-01-06 23:32:00,
2013-01-06 15:42:00,22.0,13.0,-100.00,North,3,6.0,17.0,69,0.00,,,0.00,312.000000,,2013-01-06 23:42:00,
2013-01-06 15:52:00,22.0,13.0,-100.00,North,3,6.0,17.0,69,0.00,,,0.00,312.000000,,2013-01-06 23:52:00,
2013-01-06 16:22:00,21.0,9.0,-100.00,NNE,20,5.0,10.0,58,0.00,,,0.00,36.000000,,2013-01-07 00:22:00,
2013-01-06 16:32:00,21.0,9.0,-100.00,NNE,20,5.0,10.0,58,0.00,,,0.00,36.000000,,2013-01-07 00:32:00,
2013-01-06 16:42:00,21.0,9.0,-100.00,NNE,20,5.0,10.0,58,0.00,,,0.00,36.000000,,2013-01-07 00:42:00,
2013-01-06 16:52:00,21.0,9.0,-100.00,NNE,20,5.0,10.0,58,0.00,,,0.00,36.000000,,2013-01-07 00:52:00,
2013-01-06 17:22:00,19.0,9.0,-100.00,ESE,102,5.0,13.0,64,0.00,,,0.00,12.000000,,2013-01-07 01:22:00,
2013-01-06 17:32:00,19.0,9.0,-100.00,ESE,102,5.0,13.0,64,0.00,,,0.00,12.000000,,2013-01-07 01:32:00,
2013-01-06 17:42:00,19.0,9.0,-100.00,ESE,102,5.0,13.0,64,0.00,,,0.00,12.000000,,2013-01-07 01:42:00,
2013-01-06 17:52:00,19.0,9.0,-100.00,ESE,102,5.0,13.0,64,0.00,,,0.00,12.000000,,2013-01-07 01:52:00,
2013-01-06 18:22:00,19.0,16.0,-100.00,NNE,18,3.0,9.0,89,0.00,,,0.00,0.000000,,2013-01-07 02:22:00,
2013-01-06 18:32:00,19.0,16.0,-100.00,NNE,18,3.0,9.0,89,0.00,,,0.00,0.000000,,2013-01-07 02:32:00,
2013-01-06 18:42:00,19.0,16.0,-100.00,NNE,18,3.0,9.0,89,0.00,,,0.00,0.000000,,2013-01-07 02:42:00,
2013-01-06 18:52:00,19.0,16.0,-100.00,NNE,18,3.0,9.0,89,0.00,,,0.00,0.000000,,2013-01-07 02:52:00,
2013-01-06 19:22:00,19.0,16.0,-100.00,NNE,13,4.0,11.0,88,0.00,,,0.00,0.000000,,2013-01-07 03:22:00,
2013-01-06 19:32:00,19.0,16.0,-100.00,NNE,13,4.0,11.0,88,0.00,,,0.00,0.000000,,2013-01-07 03:32:00,
2013-01-06 19:42:00,19.0,16.0,-100.00,NNE,13,4.0,11.0,88,0.00,,,0.00,0.000000,,2013-01-07 03:42:00,
2013-01-06 19:52:00,19.0,16.0,-100.00,NNE,13,4.0,11.0,88,0.00,,,0.00,0.000000,,2013-01-07 03:52:00,
2013-01-06 20:12:00,18.0,15.0,-100.00,NNW,338,2.0,4.0,89,0.00,,,0.00,0.000000,,2013-01-07 04:12:00,
2013-01-06 20:22:00,18.0,15.0,-100.00,NNW,338,2.0,4.0,89,0.00,,,0.00,0.000000,,2013-01-07 04:22:00,
2013-01-06 20:32:00,18.0,15.0,-100.00,NNW,338,2.0,4.0,89,0.00,,,0.00,0.000000,,2013-01-07 04:32:00,
2013-01-06 20:42:00,18.0,15.0,-100.00,NNW,338,2.0,4.0,89,0.00,,,0.00,0.000000,,2013-01-07 04:42:00,
2013-01-06 20:52:00,18.0,15.0,-100.00,NNW,338,2.0,4.0,89,0.00,,,0.00,0.000000,,2013-01-07 04:52:00,
2013-01-06 21:12:00,18.0,15.0,-100.00,SW,214,1.0,4.0,88,0.00,,,0.00,0.000000,,2013-01-07 05:12:00,
2013-01-06 21:22:00,18.0,15.0,-100.00,SW,214,1.0,4.0,88,0.00,,,0.00,0.000000,,2013-01-07 05:22:00,
2013-01-06 21:32:00,18.0,15.0,-100.00,SW,214,1.0,4.0,88,0.00,,,0.00,0.000000,,2013-01-07 05:32:00,
2013-01-06 21:42:00,18.0,15.0,-100.00,SW,214,1.0,4.0,88,0.00,,,0.00,0.000000,,2013-01-07 05:42:00,
2013-01-06 21:52:00,18.0,15.0,-100.00,SW,214,1.0,4.0,88,0.00,,,0.00,0.000000,,2013-01-07 05:52:00,
2013-01-06 22:12:00,19.0,16.0,-100.00,South,177,1.0,3.0,87,0.00,,,0.00,0.000000,,2013-01-07 06:12:00,
2013-01-06 22:22:00,19.0,16.0,-100.00,South,177,1.0,3.0,87,0.00,,,0.00,0.000000,,2013-01-07 06:22:00,
2013-01-06 22:32:00,19.0,16.0,-100.00,South,177,1.0,3.0,87,0.00,,,0.00,0.000000,,2013-01-07 06:32:00,
2013-01-06 22:42:00,19.0,16.0,-100.00,South,177,1.0,3.0,87,0.00,,,0.00,0.000000,,2013-01-07 06:42:00,
2013-01-06 22:52:00,19.0,16.0,-100.00,South,177,1.0,3.0,87,0.00,,,0.00,0.000000,,2013-01-07 06:52:00,
2013-01-06 23:12:00,19.0,16.0,-100.00,NE,56,1.0,4.0,89,0.00,,,0.00,0.000000,,2013-01-07 07:12:00,
2013-01-06 23:22:00,19.0,16.0,-100.00,NE,56,1.0,4.0,89,0.00,,,0.00,0.000000,,2013-01-07 07:22:00,
2013-01-06 23:32:00,19.0,16.0,-100.00,NE,56,1.0,4.0,89,0.00,,,0.00,0.000000,,2013-01-07 07:32:00,
2013-01-06 23:42:00,19.0,16.0,-100.00,NE,56,1.0,4.0,89,0.00,,,0.00,0.000000,,2013-01-07 07:42:00,
2013-01-06 23:52:00,19.0,16.0,-100.00,NE,56,1.0,4.0,89,0.00,,,0.00,0.000000,,2013-01-07 07:52:00,